createdAt,value
2019-05-26T00:00:07.341Z,13.70
2019-05-26T00:02:36.062Z,13.80
2019-05-26T00:05:07.628Z,13.80
2019-05-26T00:07:36.386Z,13.80
2019-05-26T00:10:06.941Z,13.80
2019-05-26T00:12:35.623Z,13.80
2019-05-26T00:15:05.421Z,13.80
2019-05-26T00:17:34.147Z,13.80
2019-05-26T00:20:03.240Z,13.80
2019-05-26T00:22:32.032Z,13.80
2019-05-26T00:25:00.739Z,13.80
2019-05-26T00:27:29.430Z,13.60
2019-05-26T00:29:58.194Z,13.60
2019-05-26T00:32:26.994Z,13.60
2019-05-26T00:34:55.687Z,13.50
2019-05-26T00:37:24.819Z,13.40
2019-05-26T00:39:58.009Z,13.40
2019-05-26T00:42:26.703Z,13.30
2019-05-26T00:44:55.402Z,13.30
2019-05-26T00:47:24.190Z,13.30
2019-05-26T00:49:53.112Z,13.30
2019-05-26T00:52:22.010Z,13.20
2019-05-26T00:54:50.883Z,13.20
2019-05-26T00:57:19.651Z,13.10
2019-05-26T00:59:48.356Z,13.10
2019-05-26T01:02:17.188Z,13.10
2019-05-26T01:04:45.968Z,13.00
2019-05-26T01:07:14.974Z,13.00
2019-05-26T01:09:43.680Z,13.00
2019-05-26T01:12:12.375Z,13.00
2019-05-26T01:14:41.458Z,13.00
2019-05-26T01:17:10.170Z,12.90
2019-05-26T01:19:38.858Z,12.90
2019-05-26T01:22:07.475Z,12.90
2019-05-26T01:24:36.185Z,12.80
2019-05-26T01:27:04.986Z,12.80
2019-05-26T01:29:33.682Z,12.80
2019-05-26T01:32:02.393Z,12.80
2019-05-26T01:34:31.102Z,12.80
2019-05-26T01:37:00.121Z,12.70
2019-05-26T01:39:28.843Z,12.70
2019-05-26T01:41:57.539Z,12.70
2019-05-26T01:44:26.233Z,12.60
2019-05-26T01:46:54.995Z,12.60
2019-05-26T01:49:23.682Z,12.60
2019-05-26T01:51:52.725Z,12.60
2019-05-26T01:54:21.438Z,12.60
2019-05-26T01:56:50.132Z,12.60
2019-05-26T01:59:18.823Z,12.50
2019-05-26T02:01:47.478Z,12.50
2019-05-26T02:04:16.174Z,12.50
2019-05-26T02:06:44.862Z,12.50
2019-05-26T02:09:13.509Z,12.40
2019-05-26T02:11:42.142Z,12.40
2019-05-26T02:14:14.388Z,12.40
2019-05-26T02:16:41.221Z,12.40
2019-05-26T02:19:09.914Z,12.40
2019-05-26T02:21:38.674Z,12.30
2019-05-26T02:24:08.658Z,12.30
2019-05-26T02:26:37.351Z,12.30
2019-05-26T02:29:06.043Z,12.30
2019-05-26T02:31:34.899Z,12.30
2019-05-26T02:34:03.599Z,12.20
2019-05-26T02:36:32.288Z,12.30
2019-05-26T02:39:03.309Z,12.20
2019-05-26T02:41:31.619Z,12.20
2019-05-26T02:44:00.634Z,12.10
2019-05-26T02:46:30.319Z,12.10
2019-05-26T02:48:59.007Z,12.10
2019-05-26T02:51:27.703Z,12.10
2019-05-26T02:53:56.419Z,12.10
2019-05-26T02:56:25.712Z,12.10
2019-05-26T02:58:54.411Z,12.10
2019-05-26T03:01:24.130Z,12.10
2019-05-26T03:03:53.327Z,12.10
2019-05-26T03:06:23.889Z,12.10
2019-05-26T03:08:56.298Z,12.00
2019-05-26T03:11:27.762Z,12.00
2019-05-26T03:13:57.943Z,12.00
2019-05-26T03:16:28.963Z,12.00
2019-05-26T03:18:59.470Z,11.90
2019-05-26T03:21:29.826Z,12.00
2019-05-26T03:24:01.488Z,12.00
2019-05-26T03:26:30.404Z,12.00
2019-05-26T03:28:59.070Z,12.10
2019-05-26T03:31:27.802Z,12.20
2019-05-26T03:33:56.488Z,12.10
2019-05-26T03:36:25.184Z,12.20
2019-05-26T03:38:54.091Z,12.20
2019-05-26T03:41:23.050Z,12.30
2019-05-26T03:43:51.748Z,12.40
2019-05-26T03:46:20.664Z,12.40
2019-05-26T03:48:49.478Z,12.40
2019-05-26T03:51:18.181Z,12.40
2019-05-26T03:53:46.946Z,12.40
2019-05-26T03:56:15.637Z,12.50
2019-05-26T03:58:44.325Z,12.60
2019-05-26T04:01:13.138Z,12.60
2019-05-26T04:03:41.827Z,12.60
2019-05-26T04:06:10.525Z,12.60
2019-05-26T04:08:39.338Z,12.60
2019-05-26T04:11:08.029Z,12.70
2019-05-26T04:13:36.726Z,12.60
2019-05-26T04:16:05.546Z,12.60
2019-05-26T04:18:34.237Z,12.70
2019-05-26T04:21:02.925Z,12.70
2019-05-26T04:23:31.661Z,12.70
2019-05-26T04:26:00.351Z,12.60
2019-05-26T04:28:29.093Z,12.60
2019-05-26T04:30:58.011Z,12.60
2019-05-26T04:33:26.710Z,12.40
2019-05-26T04:35:55.401Z,12.40
2019-05-26T04:38:24.155Z,12.40
2019-05-26T04:40:52.848Z,12.40
2019-05-26T04:43:21.635Z,12.40
2019-05-26T04:45:50.358Z,12.40
2019-05-26T04:48:19.055Z,12.40
2019-05-26T04:50:48.082Z,12.40
2019-05-26T04:53:16.795Z,12.40
2019-05-26T04:55:45.490Z,12.30
2019-05-26T04:58:14.185Z,12.30
2019-05-26T05:00:42.912Z,12.40
2019-05-26T05:03:11.606Z,12.30
2019-05-26T05:05:40.310Z,12.30
2019-05-26T05:08:09.025Z,12.20
2019-05-26T05:10:42.200Z,12.20
2019-05-26T05:13:08.060Z,12.30
2019-05-26T05:15:36.778Z,12.40
2019-05-26T05:18:05.471Z,12.40
2019-05-26T05:20:34.167Z,12.50
2019-05-26T05:23:02.908Z,12.60
2019-05-26T05:25:31.598Z,12.60
2019-05-26T05:28:00.262Z,12.70
2019-05-26T05:30:29.122Z,12.70
2019-05-26T05:32:58.170Z,12.70
2019-05-26T05:35:26.859Z,12.70
2019-05-26T05:37:55.713Z,12.80
2019-05-26T05:40:24.404Z,12.90
2019-05-26T05:42:53.098Z,13.00
2019-05-26T05:45:21.986Z,13.00
2019-05-26T05:47:50.747Z,13.10
2019-05-26T05:50:19.538Z,13.10
2019-05-26T05:52:48.250Z,13.10
2019-05-26T05:55:17.035Z,13.20
2019-05-26T05:57:45.829Z,13.30
2019-05-26T06:00:14.746Z,13.30
2019-05-26T06:02:43.362Z,13.30
2019-05-26T06:05:12.163Z,13.40
2019-05-26T06:07:41.216Z,13.30
2019-05-26T06:10:10.412Z,13.30
2019-05-26T06:12:39.107Z,13.40
2019-05-26T06:15:10.760Z,13.50
2019-05-26T06:17:39.458Z,13.50
2019-05-26T06:20:09.359Z,13.50
2019-05-26T06:22:38.074Z,13.50
2019-05-26T06:25:07.543Z,13.60
2019-05-26T06:27:36.627Z,13.50
2019-05-26T06:30:07.614Z,13.60
2019-05-26T06:32:36.309Z,13.60
2019-05-26T06:35:06.163Z,13.60
2019-05-26T06:37:34.887Z,13.60
2019-05-26T06:40:04.979Z,13.60
2019-05-26T06:42:33.966Z,13.60
2019-05-26T06:45:02.810Z,13.60
2019-05-26T06:47:31.516Z,13.70
2019-05-26T06:50:00.203Z,13.70
2019-05-26T06:52:29.342Z,13.70
2019-05-26T06:54:58.034Z,13.70
2019-05-26T06:57:26.659Z,13.80
2019-05-26T06:59:55.386Z,13.80
2019-05-26T07:02:24.083Z,14.00
2019-05-26T07:04:52.771Z,14.00
2019-05-26T07:07:21.547Z,14.00
2019-05-26T07:09:50.239Z,14.00
2019-05-26T07:12:19.580Z,14.00
2019-05-26T07:14:48.327Z,14.00
2019-05-26T07:17:20.387Z,14.10
2019-05-26T07:19:47.362Z,14.10
2019-05-26T07:22:16.160Z,14.20
2019-05-26T07:24:44.846Z,14.20
2019-05-26T07:27:13.530Z,14.30
2019-05-26T07:29:42.331Z,14.30
2019-05-26T07:32:11.024Z,14.40
2019-05-26T07:34:39.710Z,14.40
2019-05-26T07:37:08.430Z,14.40
2019-05-26T07:39:37.127Z,14.50
2019-05-26T07:42:10.583Z,14.40
2019-05-26T07:44:36.362Z,14.50
2019-05-26T07:47:05.261Z,14.50
2019-05-26T07:49:34.059Z,14.50
2019-05-26T07:52:02.692Z,14.50
2019-05-26T07:54:31.392Z,14.60
2019-05-26T07:57:00.403Z,14.60
2019-05-26T07:59:29.118Z,14.60
2019-05-26T08:01:57.726Z,14.80
2019-05-26T08:04:26.351Z,14.90
2019-05-26T08:06:55.082Z,15.10
2019-05-26T08:09:23.774Z,15.00
2019-05-26T08:11:52.471Z,15.10
2019-05-26T08:14:21.285Z,15.00
2019-05-26T08:16:49.921Z,15.00
2019-05-26T08:19:18.610Z,15.00
2019-05-26T08:21:47.310Z,15.00
2019-05-26T08:24:16.007Z,15.10
2019-05-26T08:26:44.698Z,14.80
2019-05-26T08:29:13.542Z,14.80
2019-05-26T08:31:42.162Z,14.80
2019-05-26T08:34:10.867Z,14.80
2019-05-26T08:36:39.716Z,14.80
2019-05-26T08:39:09.161Z,14.70
2019-05-26T08:41:37.790Z,14.80
2019-05-26T08:44:07.050Z,14.80
2019-05-26T08:46:35.742Z,14.80
2019-05-26T08:49:04.436Z,14.80
2019-05-26T08:51:33.145Z,15.00
2019-05-26T08:54:01.765Z,14.90
2019-05-26T08:56:30.481Z,15.00
2019-05-26T08:58:59.601Z,15.00
2019-05-26T09:01:28.874Z,15.00
2019-05-26T09:03:57.847Z,15.10
2019-05-26T09:06:26.603Z,15.20
2019-05-26T09:08:55.266Z,15.30
2019-05-26T09:11:24.362Z,15.30
2019-05-26T09:13:53.197Z,15.30
2019-05-26T09:16:21.827Z,15.40
2019-05-26T09:18:50.512Z,15.50
2019-05-26T09:21:19.548Z,15.50
2019-05-26T09:23:48.449Z,15.60
2019-05-26T09:26:17.415Z,15.70
2019-05-26T09:28:46.435Z,15.70
2019-05-26T09:31:15.142Z,15.80
2019-05-26T09:33:43.760Z,15.80
2019-05-26T09:36:12.476Z,15.80
2019-05-26T09:38:41.163Z,15.90
2019-05-26T09:41:09.858Z,15.90
2019-05-26T09:43:38.578Z,16.00
2019-05-26T09:46:07.571Z,16.00
2019-05-26T09:48:36.260Z,16.10
2019-05-26T09:51:04.994Z,16.10
2019-05-26T09:53:33.678Z,16.20
2019-05-26T09:56:02.368Z,16.30
2019-05-26T09:58:31.095Z,16.40
2019-05-26T10:00:59.755Z,16.50
2019-05-26T10:03:28.719Z,16.50
2019-05-26T10:05:57.435Z,16.40
2019-05-26T10:08:26.130Z,16.50
2019-05-26T10:10:54.807Z,16.50
2019-05-26T10:13:31.646Z,16.60
2019-05-26T10:15:53.879Z,16.60
2019-05-26T10:18:23.899Z,16.70
2019-05-26T10:20:52.595Z,16.70
2019-05-26T10:23:21.282Z,16.80
2019-05-26T10:25:50.007Z,16.90
2019-05-26T10:28:18.718Z,16.90
2019-05-26T10:30:47.506Z,17.00
2019-05-26T10:33:16.211Z,17.20
2019-05-26T10:35:45.011Z,17.30
2019-05-26T10:38:13.768Z,17.30
2019-05-26T10:40:42.450Z,17.50
2019-05-26T10:43:11.239Z,17.60
2019-05-26T10:45:39.941Z,17.80
2019-05-26T10:48:08.611Z,18.00
2019-05-26T10:50:37.322Z,17.90
2019-05-26T10:53:06.013Z,18.10
2019-05-26T10:55:34.704Z,18.00
2019-05-26T10:58:03.541Z,18.10
2019-05-26T11:00:33.240Z,18.10
2019-05-26T11:03:02.124Z,18.10
2019-05-26T11:05:30.946Z,18.10
2019-05-26T11:07:59.622Z,18.00
2019-05-26T11:10:28.311Z,18.00
2019-05-26T11:12:57.063Z,17.90
2019-05-26T11:15:25.722Z,17.90
2019-05-26T11:17:54.397Z,18.00
2019-05-26T11:20:23.228Z,18.10
2019-05-26T11:22:51.914Z,18.20
2019-05-26T11:25:20.686Z,18.20
2019-05-26T11:27:49.904Z,18.40
2019-05-26T11:30:19.399Z,18.30
2019-05-26T11:32:48.096Z,18.40
2019-05-26T11:35:16.918Z,18.50
2019-05-26T11:37:45.606Z,18.60
2019-05-26T11:40:16.091Z,18.60
2019-05-26T11:42:45.301Z,18.70
2019-05-26T11:45:14.686Z,18.80
2019-05-26T11:47:43.933Z,18.80
2019-05-26T11:50:13.138Z,18.90
2019-05-26T11:52:42.125Z,18.80
2019-05-26T11:55:11.375Z,18.70
2019-05-26T11:57:40.090Z,18.70
2019-05-26T12:00:11.941Z,18.60
2019-05-26T12:02:40.702Z,18.60
2019-05-26T12:05:10.488Z,18.60
2019-05-26T12:07:39.210Z,18.60
2019-05-26T12:10:08.711Z,18.60
2019-05-26T12:12:37.643Z,18.60
2019-05-26T12:15:08.325Z,18.60
2019-05-26T12:17:37.515Z,18.50
2019-05-26T12:20:06.824Z,18.70
2019-05-26T12:22:35.828Z,18.70
2019-05-26T12:25:06.645Z,18.80
2019-05-26T12:27:35.528Z,18.90
2019-05-26T12:30:06.682Z,19.00
2019-05-26T12:32:35.373Z,19.10
2019-05-26T12:35:06.546Z,19.50
2019-05-26T12:37:35.230Z,20.00
2019-05-26T12:40:08.244Z,20.30
2019-05-26T12:42:36.946Z,20.30
2019-05-26T12:45:08.107Z,20.60
2019-05-26T12:47:36.793Z,20.70
2019-05-26T12:50:07.282Z,20.90
2019-05-26T12:52:35.993Z,20.90
2019-05-26T12:55:09.061Z,21.10
2019-05-26T12:57:36.827Z,21.20
2019-05-26T13:00:10.328Z,21.20
2019-05-26T13:02:39.009Z,21.30
2019-05-26T13:05:08.596Z,21.60
2019-05-26T13:07:37.277Z,21.90
2019-05-26T13:10:08.351Z,22.30
2019-05-26T13:12:37.571Z,22.50
2019-05-26T13:15:08.726Z,22.80
2019-05-26T13:17:37.416Z,23.10
2019-05-26T13:20:10.581Z,23.50
2019-05-26T13:22:40.620Z,23.70
2019-05-26T13:25:10.679Z,24.20
2019-05-26T13:27:39.407Z,24.40
2019-05-26T13:30:17.088Z,24.20
2019-05-26T13:32:46.116Z,23.60
2019-05-26T13:35:16.207Z,23.60
2019-05-26T13:37:44.898Z,23.60
2019-05-26T13:40:15.147Z,23.60
2019-05-26T13:42:43.826Z,23.40
2019-05-26T13:45:22.574Z,23.90
2019-05-26T13:47:43.701Z,23.60
2019-05-26T13:50:12.879Z,23.70
2019-05-26T13:52:41.673Z,23.60
2019-05-26T13:55:10.876Z,24.10
2019-05-26T13:57:39.568Z,24.70
2019-05-26T14:00:09.848Z,24.80
2019-05-26T14:02:38.638Z,24.50
2019-05-26T14:05:11.197Z,24.90
2019-05-26T14:07:39.874Z,24.80
2019-05-26T14:10:10.271Z,25.50
2019-05-26T14:12:39.039Z,25.70
2019-05-26T14:15:09.710Z,25.60
2019-05-26T14:17:39.866Z,24.60
2019-05-26T14:20:09.683Z,23.90
2019-05-26T14:22:38.370Z,23.40
2019-05-26T14:25:07.943Z,23.20
2019-05-26T14:27:36.632Z,22.70
2019-05-26T14:30:08.697Z,22.50
2019-05-26T14:32:37.434Z,22.20
2019-05-26T14:35:06.954Z,22.00
2019-05-26T14:37:35.635Z,22.00
2019-05-26T14:40:06.817Z,21.70
2019-05-26T14:42:35.498Z,21.60
2019-05-26T14:45:06.370Z,21.40
2019-05-26T14:47:35.228Z,21.20
2019-05-26T14:50:09.405Z,21.00
2019-05-26T14:52:38.089Z,20.90
2019-05-26T14:55:07.243Z,20.90
2019-05-26T14:57:36.128Z,20.80
2019-05-26T15:00:09.227Z,20.70
2019-05-26T15:02:38.247Z,20.70
2019-05-26T15:05:07.242Z,20.60
2019-05-26T15:07:36.760Z,20.50
2019-05-26T15:10:07.858Z,20.40
2019-05-26T15:12:36.546Z,20.50
2019-05-26T15:15:08.405Z,20.40
2019-05-26T15:17:37.136Z,20.40
2019-05-26T15:20:06.326Z,20.40
2019-05-26T15:22:35.070Z,20.40
2019-05-26T15:25:06.064Z,20.50
2019-05-26T15:27:35.212Z,20.40
2019-05-26T15:30:08.209Z,20.40
2019-05-26T15:32:36.916Z,20.40
2019-05-26T15:35:07.529Z,20.30
2019-05-26T15:37:36.376Z,20.30
2019-05-26T15:40:08.656Z,20.30
2019-05-26T15:42:37.379Z,20.30
2019-05-26T15:45:07.371Z,20.30
2019-05-26T15:47:36.082Z,20.20
2019-05-26T15:50:07.576Z,20.20
2019-05-26T15:52:36.457Z,20.30
2019-05-26T15:55:05.884Z,20.20
2019-05-26T15:57:34.556Z,20.20
2019-05-26T16:00:05.145Z,20.20
2019-05-26T16:02:33.878Z,20.20
2019-05-26T16:05:02.653Z,20.20
2019-05-26T16:07:31.346Z,20.20
2019-05-26T16:10:00.167Z,20.20
2019-05-26T16:12:28.851Z,20.20
2019-05-26T16:14:57.614Z,20.20
2019-05-26T16:17:26.327Z,20.30
2019-05-26T16:19:55.015Z,20.20
2019-05-26T16:22:23.698Z,20.20
2019-05-26T16:24:52.505Z,20.20
2019-05-26T16:27:21.204Z,20.20
2019-05-26T16:29:49.962Z,20.20
2019-05-26T16:32:19.146Z,20.20
2019-05-26T16:34:47.872Z,20.20
2019-05-26T16:37:16.564Z,20.20
2019-05-26T16:39:45.278Z,20.20
2019-05-26T16:42:14.032Z,20.20
2019-05-26T16:44:42.720Z,20.40
2019-05-26T16:47:11.433Z,20.40
2019-05-26T16:49:40.122Z,20.50
2019-05-26T16:52:08.810Z,20.60
2019-05-26T16:54:37.634Z,20.60
2019-05-26T16:57:06.255Z,20.70
2019-05-26T16:59:34.951Z,20.60
2019-05-26T17:02:03.804Z,20.60
2019-05-26T17:04:32.811Z,20.50
2019-05-26T17:07:01.824Z,20.40
2019-05-26T17:09:30.539Z,20.30
2019-05-26T17:11:59.226Z,20.30
2019-05-26T17:14:27.910Z,20.30
2019-05-26T17:17:13.218Z,20.20
2019-05-26T17:19:27.222Z,20.20
2019-05-26T17:21:56.178Z,20.20
2019-05-26T17:24:24.887Z,20.20
2019-05-26T17:26:53.575Z,20.10
2019-05-26T17:29:22.266Z,20.10
2019-05-26T17:31:50.985Z,20.00
2019-05-26T17:34:19.683Z,19.90
2019-05-26T17:36:48.371Z,19.90
2019-05-26T17:39:17.087Z,19.80
2019-05-26T17:41:45.859Z,19.70
2019-05-26T17:44:14.542Z,19.70
2019-05-26T17:46:43.612Z,19.60
2019-05-26T17:49:12.370Z,19.60
2019-05-26T17:51:41.058Z,19.60
2019-05-26T17:54:10.599Z,19.50
2019-05-26T17:56:39.290Z,19.50
2019-05-26T17:59:07.972Z,19.40
2019-05-26T18:01:36.747Z,19.30
2019-05-26T18:04:05.517Z,19.30
2019-05-26T18:06:34.203Z,19.20
2019-05-26T18:09:02.915Z,19.20
2019-05-26T18:11:31.871Z,19.10
2019-05-26T18:14:00.556Z,19.10
2019-05-26T18:16:29.743Z,19.00
2019-05-26T18:18:58.839Z,19.00
2019-05-26T18:21:28.534Z,18.90
2019-05-26T18:23:57.403Z,18.90
2019-05-26T18:26:26.087Z,18.80
2019-05-26T18:28:54.863Z,18.70
2019-05-26T18:31:23.578Z,18.70
2019-05-26T18:33:52.267Z,18.70
2019-05-26T18:36:20.962Z,18.70
2019-05-26T18:38:49.668Z,18.60
2019-05-26T18:41:18.682Z,18.50
2019-05-26T18:43:47.684Z,18.40
2019-05-26T18:46:16.395Z,18.30
2019-05-26T18:48:45.074Z,18.20
2019-05-26T18:51:13.854Z,18.10
2019-05-26T18:53:42.583Z,18.00
2019-05-26T18:56:11.267Z,17.90
2019-05-26T18:58:39.950Z,17.80
2019-05-26T19:01:08.666Z,17.70
2019-05-26T19:03:37.770Z,17.70
2019-05-26T19:06:06.708Z,17.50
2019-05-26T19:08:35.431Z,17.40
2019-05-26T19:11:04.122Z,17.40
2019-05-26T19:13:32.803Z,17.40
2019-05-26T19:16:01.533Z,17.30
2019-05-26T19:18:30.482Z,17.20
2019-05-26T19:20:59.548Z,17.20
2019-05-26T19:23:29.197Z,17.10
2019-05-26T19:25:57.879Z,17.00
2019-05-26T19:28:26.870Z,17.00
2019-05-26T19:30:55.574Z,16.90
2019-05-26T19:33:24.262Z,16.90
2019-05-26T19:35:53.163Z,16.80
2019-05-26T19:38:22.046Z,16.80
2019-05-26T19:40:51.080Z,16.80
2019-05-26T19:43:19.764Z,16.70
2019-05-26T19:45:48.467Z,16.80
2019-05-26T19:48:34.622Z,16.80
2019-05-26T19:50:49.187Z,16.70
2019-05-26T19:53:17.883Z,16.70
2019-05-26T19:55:46.580Z,16.70
2019-05-26T19:58:15.276Z,16.70
2019-05-26T20:00:43.987Z,16.60
2019-05-26T20:03:12.674Z,16.60
2019-05-26T20:05:41.362Z,16.60
2019-05-26T20:08:10.222Z,16.50
2019-05-26T20:10:39.219Z,16.50
2019-05-26T20:13:07.914Z,16.50
2019-05-26T20:15:36.627Z,16.30
2019-05-26T20:18:05.362Z,16.20
2019-05-26T20:20:34.160Z,16.20
2019-05-26T20:23:02.986Z,16.10
2019-05-26T20:25:31.674Z,16.10
2019-05-26T20:28:00.388Z,16.00
2019-05-26T20:30:29.097Z,16.00
2019-05-26T20:32:57.775Z,15.90
2019-05-26T20:35:26.459Z,15.90
2019-05-26T20:37:55.173Z,15.80
2019-05-26T20:40:23.862Z,15.80
2019-05-26T20:42:52.577Z,15.80
2019-05-26T20:45:21.345Z,15.80
2019-05-26T20:47:50.036Z,15.80
2019-05-26T20:50:28.659Z,15.80
2019-05-26T20:52:49.446Z,15.70
2019-05-26T20:55:18.438Z,15.60
2019-05-26T20:57:47.488Z,15.60
2019-05-26T21:00:17.247Z,15.50
2019-05-26T21:02:46.326Z,15.50
2019-05-26T21:05:15.529Z,15.50
2019-05-26T21:07:44.263Z,15.50
2019-05-26T21:10:13.154Z,15.40
2019-05-26T21:12:43.819Z,15.30
2019-05-26T21:15:13.377Z,15.30
2019-05-26T21:17:42.089Z,15.20
2019-05-26T21:20:11.227Z,15.10
2019-05-26T21:22:40.927Z,15.10
2019-05-26T21:25:10.021Z,15.10
2019-05-26T21:27:38.777Z,15.00
2019-05-26T21:30:08.215Z,15.00
2019-05-26T21:32:36.904Z,14.90
2019-05-26T21:35:07.101Z,15.00
2019-05-26T21:37:35.828Z,14.90
2019-05-26T21:40:07.110Z,14.90
2019-05-26T21:42:35.803Z,14.90
2019-05-26T21:45:06.018Z,15.00
2019-05-26T21:47:35.657Z,14.90
2019-05-26T21:50:07.072Z,14.80
2019-05-26T21:52:35.761Z,14.80
2019-05-26T21:55:06.095Z,14.70
2019-05-26T21:57:34.772Z,14.60
2019-05-26T22:00:04.957Z,14.60
2019-05-26T22:02:33.640Z,14.60
2019-05-26T22:05:02.326Z,14.60
2019-05-26T22:07:31.323Z,14.60
2019-05-26T22:10:00.007Z,14.50
2019-05-26T22:12:28.798Z,14.40
2019-05-26T22:14:57.497Z,14.40
2019-05-26T22:17:26.270Z,14.40
2019-05-26T22:19:55.355Z,14.30
2019-05-26T22:22:24.070Z,14.30
2019-05-26T22:24:52.682Z,14.30
2019-05-26T22:27:21.594Z,14.30
2019-05-26T22:29:50.607Z,14.30
2019-05-26T22:32:19.297Z,14.30
2019-05-26T22:34:48.002Z,14.30
2019-05-26T22:37:16.843Z,14.40
2019-05-26T22:39:45.527Z,14.40
2019-05-26T22:42:14.570Z,14.30
2019-05-26T22:44:43.978Z,14.30
2019-05-26T22:47:12.670Z,14.30
2019-05-26T22:49:41.369Z,14.30
2019-05-26T22:52:10.097Z,14.30
2019-05-26T22:54:38.840Z,14.30
2019-05-26T22:57:07.843Z,14.40
2019-05-26T22:59:36.588Z,14.30
2019-05-26T23:02:05.492Z,14.30
2019-05-26T23:04:34.163Z,14.30
2019-05-26T23:07:03.079Z,14.40
2019-05-26T23:09:31.757Z,14.40
2019-05-26T23:12:00.443Z,14.50
2019-05-26T23:14:29.160Z,14.50
2019-05-26T23:16:57.910Z,14.50
2019-05-26T23:19:26.598Z,14.50
2019-05-26T23:21:55.318Z,14.50
2019-05-26T23:24:24.022Z,14.60
2019-05-26T23:26:52.639Z,14.60
2019-05-26T23:29:21.559Z,14.60
2019-05-26T23:31:50.244Z,14.60
2019-05-26T23:34:19.022Z,14.60
2019-05-26T23:36:47.739Z,14.60
2019-05-26T23:39:16.510Z,14.60
2019-05-26T23:41:45.182Z,14.60
2019-05-26T23:44:14.039Z,14.70
2019-05-26T23:46:42.722Z,14.60
2019-05-26T23:49:12.635Z,14.60
2019-05-26T23:51:41.530Z,14.60
2019-05-26T23:54:10.211Z,14.70
2019-05-26T23:56:38.893Z,14.60
2019-05-26T23:59:07.705Z,14.60
